Terminal Aerodrome Forecast
Issued by NWS

Home | Current Version | Previous Version | Text Only | Print | Product List | Glossary On
Versions: 1 2 3 4 5 6 7 8 9 10 11 12 13 14 15 16 17 18 19 20 21 22 23 24 25 26 27 28 29 30 31 32 33 34 35
000
FTUS44 KHGX 280526
TAFSGR
TAF
KSGR 280526Z 2806/2906 36012G22KT P6SM OVC025
     FM280900 35013G20KT 4SM -SHRA BR OVC008
     FM281600 35012KT 6SM BR VCSH OVC008
     FM282200 26006KT P6SM OVC010=

USA.gov is the U.S. government's official web portal to all federal, state and local government web resources and services.